createdAt,value
2018-05-31T00:01:06.597Z,96869.13
2018-05-31T00:05:59.964Z,96886.70
2018-05-31T00:10:54.110Z,96889.28
2018-05-31T00:15:47.504Z,96896.44
2018-05-31T00:20:40.881Z,96903.72
2018-05-31T00:25:34.229Z,96895.75
2018-05-31T00:30:29.631Z,96891.68
2018-05-31T00:40:45.239Z,96907.11
2018-05-31T00:45:38.573Z,96913.35
2018-05-31T00:50:31.922Z,96927.53
2018-05-31T01:00:47.289Z,96914.48
2018-05-31T01:05:40.661Z,96899.94
2018-05-31T01:10:34.091Z,96891.41
2018-05-31T01:15:28.296Z,96896.47
2018-05-31T01:20:21.686Z,96894.88
2018-05-31T01:25:15.049Z,96888.22
2018-05-31T01:30:08.414Z,96888.61
2018-05-31T01:35:02.674Z,96889.42
2018-05-31T01:39:56.061Z,96897.34
2018-05-31T01:44:49.371Z,96896.04
2018-05-31T01:49:43.461Z,96903.17
2018-05-31T01:54:36.802Z,96886.95
2018-05-31T01:59:30.346Z,96882.17
2018-05-31T02:04:23.728Z,96880.73
2018-05-31T02:09:17.068Z,96882.44
2018-05-31T02:14:11.143Z,96880.48
2018-05-31T02:19:04.968Z,96875.18
2018-05-31T02:23:58.309Z,96863.73
2018-05-31T02:28:51.690Z,96865.91
2018-05-31T02:33:45.017Z,96863.98
2018-05-31T02:38:38.361Z,96862.97
2018-05-31T02:43:31.712Z,96859.02
2018-05-31T02:48:25.114Z,96865.72
2018-05-31T02:53:18.430Z,96858.80
2018-05-31T02:58:11.789Z,96863.74
2018-05-31T03:03:05.222Z,96842.04
2018-05-31T03:07:58.637Z,96858.48
2018-05-31T03:12:52.531Z,96858.84
2018-05-31T03:17:45.968Z,96858.11
2018-05-31T03:22:39.330Z,96856.15
2018-05-31T03:27:32.741Z,96851.67
2018-05-31T03:32:26.083Z,96848.59
2018-05-31T03:37:19.480Z,96849.14
2018-05-31T03:42:12.819Z,96845.00
2018-05-31T03:47:06.920Z,96855.68
2018-05-31T03:52:00.304Z,96847.92
2018-05-31T03:56:54.509Z,96840.53
2018-05-31T04:01:47.916Z,96839.00
2018-05-31T04:06:41.372Z,96850.73
2018-05-31T04:11:34.737Z,96861.42
2018-05-31T04:16:29.911Z,96872.25
2018-05-31T04:21:23.293Z,96869.33
2018-05-31T04:26:16.692Z,96874.04
2018-05-31T04:31:10.082Z,96881.14
2018-05-31T04:36:08.862Z,96880.46
2018-05-31T04:41:02.275Z,96889.55
2018-05-31T04:45:56.389Z,96893.26
2018-05-31T04:50:50.460Z,96907.05
2018-05-31T04:55:43.861Z,96904.95
2018-05-31T05:00:41.050Z,96903.50
2018-05-31T05:05:34.421Z,96907.84
2018-05-31T05:10:28.872Z,96899.02
2018-05-31T05:15:22.203Z,96904.37
2018-05-31T05:20:18.854Z,96910.50
2018-05-31T05:25:12.215Z,96917.86
2018-05-31T05:30:06.361Z,96929.70
2018-05-31T05:34:59.742Z,96935.26
2018-05-31T05:39:53.147Z,96929.79
2018-05-31T05:44:46.529Z,96929.14
2018-05-31T05:49:39.959Z,96934.54
2018-05-31T05:54:33.392Z,96923.73
2018-05-31T05:59:27.073Z,96935.04
2018-05-31T06:04:21.875Z,96926.84
2018-05-31T06:09:15.241Z,96931.59
2018-05-31T06:14:08.738Z,96938.13
2018-05-31T06:19:02.337Z,96936.46
2018-05-31T06:23:58.159Z,96921.58
2018-05-31T06:28:53.994Z,96915.82
2018-05-31T06:33:47.417Z,96924.99
2018-05-31T06:38:41.795Z,96932.66
2018-05-31T06:43:35.131Z,96934.11
2018-05-31T06:48:28.664Z,96939.58
2018-05-31T06:53:22.011Z,96946.81
2018-05-31T06:58:16.086Z,96952.75
2018-05-31T07:03:10.369Z,96941.94
2018-05-31T07:08:03.861Z,96941.94
2018-05-31T07:12:57.196Z,96940.88
2018-05-31T07:17:50.600Z,96954.97
2018-05-31T07:22:44.738Z,96947.36
2018-05-31T07:27:40.145Z,96942.53
2018-05-31T07:32:33.595Z,96949.63
2018-05-31T07:37:27.097Z,96956.28
2018-05-31T07:42:21.905Z,96957.26
2018-05-31T07:47:16.942Z,96961.42
2018-05-31T07:52:11.738Z,96957.20
2018-05-31T07:57:06.997Z,96954.81
2018-05-31T08:02:00.585Z,96960.03
2018-05-31T08:12:07.522Z,96956.62
2018-05-31T08:17:01.040Z,96963.04
2018-05-31T08:21:54.410Z,96971.69
2018-05-31T08:26:47.832Z,96977.44
2018-05-31T08:31:42.479Z,96968.84
2018-05-31T08:36:36.582Z,96974.63
2018-05-31T08:41:29.954Z,96977.28
2018-05-31T08:52:11.135Z,96982.60
2018-05-31T08:57:05.737Z,96983.84
2018-05-31T09:01:59.251Z,96971.45
2018-05-31T09:06:52.700Z,96972.89
2018-05-31T09:11:46.260Z,96967.92
2018-05-31T09:16:39.861Z,96971.92
2018-05-31T09:21:34.770Z,96985.46
2018-05-31T09:26:28.245Z,96985.63
2018-05-31T09:31:23.245Z,96980.04
2018-05-31T09:41:33.595Z,96988.00
2018-05-31T09:46:30.887Z,96988.94
2018-05-31T09:51:24.543Z,96985.05
2018-05-31T09:56:18.889Z,96994.98
2018-05-31T10:01:12.433Z,96985.99
2018-05-31T10:06:07.232Z,96978.20
2018-05-31T10:11:01.154Z,96983.71
2018-05-31T10:15:54.629Z,96984.39
2018-05-31T10:20:48.798Z,96971.45
2018-05-31T10:31:07.457Z,96945.78
2018-05-31T10:36:00.943Z,96951.02
2018-05-31T10:40:54.381Z,96946.05
2018-05-31T10:45:47.964Z,96939.53
2018-05-31T10:50:43.894Z,96935.80
2018-05-31T10:55:37.204Z,96926.39
2018-05-31T11:00:31.881Z,96922.91
2018-05-31T11:05:25.224Z,96915.23
2018-05-31T11:10:18.545Z,96910.45
2018-05-31T11:20:33.124Z,96911.08
2018-05-31T11:25:26.550Z,96907.39
2018-05-31T11:30:20.646Z,96909.31
2018-05-31T11:35:13.997Z,96908.65
2018-05-31T11:40:08.360Z,96903.81
2018-05-31T11:45:01.805Z,96891.56
2018-05-31T11:49:56.340Z,96892.23
2018-05-31T11:54:50.217Z,96900.53
2018-05-31T11:59:45.216Z,96897.91
2018-05-31T12:04:39.121Z,96908.78
2018-05-31T12:09:33.472Z,96889.30
2018-05-31T12:14:27.211Z,96887.02
2018-05-31T12:19:20.675Z,96877.43
2018-05-31T12:24:13.985Z,96871.79
2018-05-31T12:29:07.374Z,96866.51
2018-05-31T12:34:00.676Z,96859.38
2018-05-31T12:38:53.972Z,96851.75
2018-05-31T12:43:47.303Z,96849.70
2018-05-31T12:48:40.603Z,96848.92
2018-05-31T12:53:34.690Z,96854.55
2018-05-31T12:58:28.747Z,96844.92
2018-05-31T13:03:22.078Z,96841.88
2018-05-31T13:08:17.250Z,96840.50
2018-05-31T13:13:10.555Z,96838.13
2018-05-31T13:18:06.880Z,96827.44
2018-05-31T13:23:00.170Z,96811.77
2018-05-31T13:27:53.531Z,96801.05
2018-05-31T13:32:46.823Z,96786.33
2018-05-31T13:37:40.137Z,96777.26
2018-05-31T13:42:34.283Z,96775.13
2018-05-31T13:47:27.608Z,96759.96
2018-05-31T13:52:21.669Z,96752.09
2018-05-31T13:57:15.015Z,96760.58
2018-05-31T14:02:08.312Z,96772.25
2018-05-31T14:07:01.633Z,96782.16
2018-05-31T14:11:55.705Z,96774.94
2018-05-31T14:16:49.003Z,96765.38
2018-05-31T14:21:42.315Z,96783.52
2018-05-31T14:26:35.611Z,96779.80
2018-05-31T14:31:28.914Z,96761.10
2018-05-31T14:36:22.214Z,96754.92
2018-05-31T14:41:16.319Z,96750.52
2018-05-31T14:46:09.602Z,96762.56
2018-05-31T14:51:02.908Z,96757.95
2018-05-31T14:55:56.215Z,96749.47
2018-05-31T15:00:49.589Z,96742.23
2018-05-31T15:05:42.907Z,96741.95
2018-05-31T15:10:36.195Z,96742.97
2018-05-31T15:15:29.514Z,96737.41
2018-05-31T15:20:22.823Z,96734.55
2018-05-31T15:25:16.967Z,96724.17
2018-05-31T15:30:10.294Z,96716.70
2018-05-31T15:35:04.391Z,96709.63
2018-05-31T15:39:58.451Z,96698.81
2018-05-31T15:44:51.801Z,96713.28
2018-05-31T15:49:45.171Z,96707.03
2018-05-31T15:54:38.491Z,96694.95
2018-05-31T15:59:31.816Z,96703.87
2018-05-31T16:04:25.104Z,96709.73
2018-05-31T16:09:19.174Z,96719.94
2018-05-31T16:14:13.226Z,96718.16
2018-05-31T16:19:06.519Z,96726.19
2018-05-31T16:24:01.435Z,96743.35
2018-05-31T16:28:54.749Z,96744.94
2018-05-31T16:33:48.063Z,96736.97
2018-05-31T16:38:41.359Z,96726.42
2018-05-31T16:43:34.657Z,96716.84
2018-05-31T16:48:28.748Z,96722.95
2018-05-31T16:53:22.837Z,96708.39
2018-05-31T16:58:16.193Z,96673.26
2018-05-31T17:03:09.576Z,96661.55
2018-05-31T17:08:02.950Z,96656.72
2018-05-31T17:12:56.263Z,96646.05
2018-05-31T17:17:50.337Z,96651.62
2018-05-31T17:22:43.655Z,96660.30
2018-05-31T17:27:36.974Z,96677.73
2018-05-31T17:32:30.455Z,96688.55
2018-05-31T17:37:23.794Z,96711.55
2018-05-31T17:42:30.794Z,96717.83
2018-05-31T17:47:24.885Z,96726.60
2018-05-31T17:52:18.284Z,96737.09
2018-05-31T17:57:11.614Z,96742.85
2018-05-31T18:02:04.925Z,96744.19
2018-05-31T18:06:58.257Z,96743.97
2018-05-31T18:11:51.572Z,96751.98
2018-05-31T18:16:44.859Z,96757.48
2018-05-31T18:21:38.162Z,96759.14
2018-05-31T18:26:31.469Z,96773.75
2018-05-31T18:31:24.783Z,96778.59
2018-05-31T18:36:18.082Z,96774.95
2018-05-31T18:41:12.925Z,96807.08
2018-05-31T18:46:06.236Z,96804.02
2018-05-31T18:51:00.437Z,96811.92
2018-05-31T18:55:53.732Z,96809.34
2018-05-31T19:00:47.876Z,96814.49
2018-05-31T19:05:45.367Z,96819.36
2018-05-31T19:10:39.565Z,96814.37
2018-05-31T19:15:32.914Z,96825.13
2018-05-31T19:20:27.126Z,96823.33
2018-05-31T19:25:20.452Z,96845.41
2018-05-31T19:30:19.294Z,96868.59
2018-05-31T19:35:18.010Z,96907.86
2018-05-31T19:40:11.339Z,96964.12
2018-05-31T19:45:04.645Z,96975.58
2018-05-31T19:49:57.934Z,96977.64
2018-05-31T19:54:51.998Z,96996.45
2018-05-31T19:59:50.823Z,97023.22
2018-05-31T20:04:44.125Z,97034.63
2018-05-31T20:09:37.432Z,97052.52
2018-05-31T20:14:31.930Z,97050.19
2018-05-31T20:19:26.075Z,97071.83
2018-05-31T20:24:20.422Z,97068.86
2018-05-31T20:29:14.607Z,97057.52
2018-05-31T20:34:07.928Z,97065.41
2018-05-31T20:39:01.225Z,97100.22
2018-05-31T20:43:54.514Z,97145.22
2018-05-31T20:48:47.882Z,97142.84
2018-05-31T20:53:41.210Z,97137.96
2018-05-31T20:58:35.333Z,97168.36
2018-05-31T21:03:28.640Z,97195.40
2018-05-31T21:08:21.959Z,97202.01
2018-05-31T21:13:15.294Z,97173.56
2018-05-31T21:18:08.588Z,97151.81
2018-05-31T21:23:01.912Z,97117.66
2018-05-31T21:27:56.007Z,97093.78
2018-05-31T21:32:50.186Z,97053.86
2018-05-31T21:37:44.326Z,97031.97
2018-05-31T21:42:37.761Z,97049.03
2018-05-31T21:47:31.122Z,97063.34
2018-05-31T21:52:24.576Z,97074.36
2018-05-31T21:57:17.936Z,97079.87
2018-05-31T22:02:11.417Z,97086.34
2018-05-31T22:07:04.758Z,97100.84
2018-05-31T22:11:58.157Z,97118.92
2018-05-31T22:16:52.279Z,97130.61
2018-05-31T22:21:45.594Z,97153.96
2018-05-31T22:26:39.787Z,97168.17
2018-05-31T22:31:33.135Z,97171.44
2018-05-31T22:36:26.488Z,97179.64
2018-05-31T22:41:19.791Z,97178.67
2018-05-31T22:46:13.110Z,97184.55
2018-05-31T22:51:06.429Z,97195.40
2018-05-31T22:55:59.752Z,97221.59
2018-05-31T23:00:53.095Z,97227.23
2018-05-31T23:05:46.395Z,97239.22
2018-05-31T23:10:39.706Z,97240.92
2018-05-31T23:15:32.992Z,97222.37
2018-05-31T23:20:27.048Z,97221.25
2018-05-31T23:25:20.355Z,97233.14
2018-05-31T23:30:14.462Z,97237.99
2018-05-31T23:35:07.754Z,97239.03
2018-05-31T23:40:01.035Z,97240.83
2018-05-31T23:44:54.330Z,97250.28
2018-05-31T23:49:47.625Z,97265.30
2018-05-31T23:54:40.954Z,97279.63
2018-05-31T23:59:34.990Z,97290.65
